createdAt,value
2023-11-21T00:01:38.386Z,100532.19
2023-11-21T00:04:08.910Z,100526.09
2023-11-21T00:06:36.979Z,100530.31
2023-11-21T00:09:04.458Z,100536.38
2023-11-21T00:11:33.469Z,100535.16
2023-11-21T00:14:04.411Z,100532.78
2023-11-21T00:16:31.637Z,100531.47
2023-11-21T00:19:03.694Z,100539.44
2023-11-21T00:21:30.878Z,100537.03
2023-11-21T00:24:00.763Z,100540.09
2023-11-21T00:26:27.920Z,100554.78
2023-11-21T00:29:02.327Z,100546.59
2023-11-21T00:31:29.521Z,100561.28
2023-11-21T00:33:56.758Z,100566.50
2023-11-21T00:36:27.058Z,100574.78
2023-11-21T00:38:59.228Z,100576.13
2023-11-21T00:41:30.285Z,100576.84
2023-11-21T00:44:00.711Z,100575.56
2023-11-21T00:46:30.607Z,100582.13
2023-11-21T00:49:00.537Z,100580.38
2023-11-21T00:51:27.782Z,100590.38
2023-11-21T00:53:54.929Z,100589.06
2023-11-21T00:56:22.816Z,100592.00
2023-11-21T00:58:53.355Z,100587.09
2023-11-21T01:01:24.203Z,100586.53
2023-11-21T01:03:51.918Z,100593.34
2023-11-21T01:06:19.476Z,100601.97
2023-11-21T01:08:46.671Z,100597.06
2023-11-21T01:11:16.203Z,100596.22
2023-11-21T01:13:43.755Z,100602.81
2023-11-21T01:16:13.684Z,100601.09
2023-11-21T01:18:43.045Z,100614.50
2023-11-21T01:21:13.141Z,100621.63
2023-11-21T01:23:40.160Z,100627.56
2023-11-21T01:26:08.567Z,100635.16
2023-11-21T01:28:37.943Z,100638.38
2023-11-21T01:31:05.462Z,100635.16
2023-11-21T01:33:34.960Z,100640.25
2023-11-21T01:36:02.037Z,100650.91
2023-11-21T01:38:31.885Z,100647.22
2023-11-21T01:41:01.796Z,100646.53
2023-11-21T01:43:32.555Z,100656.34
2023-11-21T01:46:00.044Z,100654.47
2023-11-21T01:48:30.559Z,100661.41
2023-11-21T01:50:57.799Z,100665.09
2023-11-21T01:53:31.373Z,100671.81
2023-11-21T01:56:01.010Z,100672.84
2023-11-21T01:58:33.565Z,100682.63
2023-11-21T02:01:01.030Z,100685.97
2023-11-21T02:03:28.346Z,100692.09
2023-11-21T02:05:55.571Z,100689.75
2023-11-21T02:08:22.613Z,100691.59
2023-11-21T02:10:52.123Z,100688.84
2023-11-21T02:13:21.799Z,100697.00
2023-11-21T02:15:51.011Z,100704.97
2023-11-21T02:18:20.814Z,100711.72
2023-11-21T02:20:48.342Z,100703.59
2023-11-21T02:23:19.324Z,100713.81
2023-11-21T02:25:49.851Z,100716.09
2023-11-21T02:28:26.687Z,100727.63
2023-11-21T02:30:57.990Z,100727.66
2023-11-21T02:33:25.188Z,100729.19
2023-11-21T02:35:55.891Z,100729.25
2023-11-21T02:38:23.199Z,100735.03
2023-11-21T02:40:53.203Z,100726.34
2023-11-21T02:43:20.325Z,100729.19
2023-11-21T02:45:47.490Z,100728.88
2023-11-21T02:48:16.957Z,100736.19
2023-11-21T02:50:44.430Z,100733.31
2023-11-21T02:53:11.866Z,100729.56
2023-11-21T02:55:41.766Z,100739.38
2023-11-21T02:58:09.537Z,100752.22
2023-11-21T03:00:38.816Z,100748.69
2023-11-21T03:03:06.000Z,100755.25
2023-11-21T03:05:36.744Z,100759.28
2023-11-21T03:08:03.948Z,100759.59
2023-11-21T03:10:30.863Z,100764.84
2023-11-21T03:12:59.031Z,100776.19
2023-11-21T03:15:28.956Z,100775.97
2023-11-21T03:17:56.204Z,100773.72
2023-11-21T03:20:26.686Z,100784.72
2023-11-21T03:22:55.465Z,100778.78
2023-11-21T03:25:25.502Z,100790.34
2023-11-21T03:27:55.142Z,100782.38
2023-11-21T03:30:22.372Z,100791.34
2023-11-21T03:32:49.662Z,100792.69
2023-11-21T03:35:17.095Z,100787.28
2023-11-21T03:37:45.143Z,100793.69
2023-11-21T03:40:14.026Z,100802.13
2023-11-21T03:42:41.638Z,100807.94
2023-11-21T03:45:13.923Z,100804.41
2023-11-21T03:47:45.714Z,100812.28
2023-11-21T03:50:15.626Z,100819.06
2023-11-21T03:52:45.606Z,100820.44
2023-11-21T03:55:16.132Z,100819.44
2023-11-21T03:57:45.885Z,100832.75
2023-11-21T04:00:14.168Z,100829.50
2023-11-21T04:02:41.948Z,100832.56
2023-11-21T04:05:10.497Z,100839.53
2023-11-21T04:07:39.676Z,100843.84
2023-11-21T04:10:10.824Z,100842.72
2023-11-21T04:12:40.587Z,100843.78
2023-11-21T04:15:10.549Z,100849.50
2023-11-21T04:17:37.992Z,100854.81
2023-11-21T04:20:12.114Z,100864.84
2023-11-21T04:22:46.056Z,100874.09
2023-11-21T04:25:17.482Z,100877.97
2023-11-21T04:27:46.109Z,100884.97
2023-11-21T04:30:15.175Z,100889.31
2023-11-21T04:32:45.542Z,100897.75
2023-11-21T04:35:13.110Z,100905.19
2023-11-21T04:37:42.516Z,100910.03
2023-11-21T04:40:10.768Z,100913.78
2023-11-21T04:42:38.117Z,100910.19
2023-11-21T04:45:10.267Z,100915.19
2023-11-21T04:47:38.373Z,100912.16
2023-11-21T04:50:07.256Z,100918.88
2023-11-21T04:52:34.516Z,100909.59
2023-11-21T04:55:04.231Z,100912.34
2023-11-21T04:57:31.324Z,100924.50
2023-11-21T04:59:58.590Z,100927.28
2023-11-21T05:02:34.152Z,100937.94
2023-11-21T05:05:07.545Z,100939.72
2023-11-21T05:07:38.348Z,100932.78
2023-11-21T05:10:13.723Z,100937.72
2023-11-21T05:12:44.149Z,100950.56
2023-11-21T05:15:15.829Z,100950.47
2023-11-21T05:17:44.279Z,100949.41
2023-11-21T05:20:19.254Z,100962.72
2023-11-21T05:22:46.814Z,100960.16
2023-11-21T05:25:14.197Z,100959.63
2023-11-21T05:27:41.349Z,100955.06
2023-11-21T05:30:14.021Z,100964.66
2023-11-21T05:32:45.289Z,100964.97
2023-11-21T05:35:17.275Z,100963.25
2023-11-21T05:37:48.569Z,100967.91
2023-11-21T05:40:16.121Z,100971.00
2023-11-21T05:42:43.261Z,100966.44
2023-11-21T05:45:14.105Z,100977.94
2023-11-21T05:47:48.704Z,100977.00
2023-11-21T05:50:19.806Z,100979.94
2023-11-21T05:52:48.606Z,100983.81
2023-11-21T05:55:16.696Z,100987.59
2023-11-21T05:57:45.193Z,101002.06
2023-11-21T06:00:26.827Z,101003.44
2023-11-21T06:02:55.978Z,101007.00
2023-11-21T06:05:26.019Z,101009.03
2023-11-21T06:07:55.924Z,101017.00
2023-11-21T06:10:26.484Z,101018.00
2023-11-21T06:12:54.644Z,101016.44
2023-11-21T06:15:25.022Z,101025.50
2023-11-21T06:17:56.178Z,101021.53
2023-11-21T06:20:24.212Z,101036.00
2023-11-21T06:22:52.928Z,101029.25
2023-11-21T06:25:20.414Z,101036.22
2023-11-21T06:27:49.001Z,101037.06
2023-11-21T06:30:17.604Z,101044.75
2023-11-21T06:32:51.556Z,101059.13
2023-11-21T06:35:18.816Z,101065.28
2023-11-21T06:37:50.773Z,101069.63
2023-11-21T06:40:21.865Z,101076.19
2023-11-21T06:42:49.699Z,101085.31
2023-11-21T06:45:18.060Z,101086.25
2023-11-21T06:47:45.937Z,101086.94
2023-11-21T06:50:18.368Z,101097.38
2023-11-21T06:52:48.298Z,101090.44
2023-11-21T06:55:16.057Z,101105.31
2023-11-21T06:57:46.096Z,101096.41
2023-11-21T07:00:14.894Z,101102.25
2023-11-21T07:02:42.246Z,101106.75
2023-11-21T07:05:15.588Z,101105.19
2023-11-21T07:07:43.025Z,101119.28
2023-11-21T07:10:10.457Z,101115.56
2023-11-21T07:12:41.454Z,101125.25
2023-11-21T07:15:12.592Z,101126.00
2023-11-21T07:17:42.624Z,101129.81
2023-11-21T07:20:12.624Z,101131.09
2023-11-21T07:22:41.840Z,101133.56
2023-11-21T07:25:10.724Z,101127.00
2023-11-21T07:27:40.323Z,101135.44
2023-11-21T07:30:11.369Z,101140.13
2023-11-21T07:32:41.050Z,101148.25
2023-11-21T07:35:09.404Z,101150.75
2023-11-21T07:37:38.920Z,101151.06
2023-11-21T07:40:10.037Z,101146.34
2023-11-21T07:42:40.006Z,101157.28
2023-11-21T07:45:08.380Z,101162.72
2023-11-21T07:47:35.818Z,101171.38
2023-11-21T07:50:08.967Z,101171.59
2023-11-21T07:52:36.387Z,101176.75
2023-11-21T07:55:04.709Z,101173.50
2023-11-21T07:57:38.939Z,101182.13
2023-11-21T08:00:10.829Z,101196.47
2023-11-21T08:02:37.914Z,101195.25
2023-11-21T08:05:05.396Z,101201.28
2023-11-21T08:07:34.744Z,101196.16
2023-11-21T08:10:01.923Z,101207.78
2023-11-21T08:12:29.079Z,101213.97
2023-11-21T08:14:56.227Z,101209.28
2023-11-21T08:17:24.639Z,101208.88
2023-11-21T08:19:52.743Z,101207.25
2023-11-21T08:22:19.987Z,101218.41
2023-11-21T08:24:47.785Z,101229.34
2023-11-21T08:27:17.016Z,101218.78
2023-11-21T08:29:45.314Z,101230.44
2023-11-21T08:32:12.398Z,101224.03
2023-11-21T08:34:41.504Z,101228.63
2023-11-21T08:37:08.522Z,101240.03
2023-11-21T08:39:35.614Z,101234.84
2023-11-21T08:42:03.752Z,101238.28
2023-11-21T08:44:33.107Z,101244.28
2023-11-21T08:47:07.389Z,101247.88
2023-11-21T08:49:35.641Z,101251.91
2023-11-21T08:52:06.298Z,101256.97
2023-11-21T08:54:36.369Z,101255.09
2023-11-21T08:57:06.292Z,101255.50
2023-11-21T08:59:34.313Z,101262.94
2023-11-21T09:02:01.505Z,101265.03
2023-11-21T09:04:33.089Z,101277.66
2023-11-21T09:07:01.337Z,101281.63
2023-11-21T09:09:31.947Z,101285.81
2023-11-21T09:12:01.780Z,101287.00
2023-11-21T09:14:29.598Z,101288.75
2023-11-21T09:16:57.809Z,101290.84
2023-11-21T09:19:26.089Z,101290.78
2023-11-21T09:21:53.323Z,101295.78
2023-11-21T09:24:20.344Z,101303.50
2023-11-21T09:26:47.503Z,101303.56
2023-11-21T09:29:15.125Z,101301.31
2023-11-21T09:31:43.530Z,101308.19
2023-11-21T09:34:12.122Z,101318.72
2023-11-21T09:36:42.159Z,101329.72
2023-11-21T09:39:11.614Z,101337.75
2023-11-21T09:42:24.132Z,101336.69
2023-11-21T09:45:27.556Z,101343.75
2023-11-21T09:47:59.371Z,101344.81
2023-11-21T09:50:27.865Z,101346.16
2023-11-21T09:53:22.828Z,101356.38
2023-11-21T09:55:54.150Z,101353.94
2023-11-21T09:58:24.554Z,101348.88
2023-11-21T10:00:57.908Z,101350.69
2023-11-21T10:03:25.600Z,101357.19
2023-11-21T10:05:54.721Z,101360.91
2023-11-21T10:08:25.170Z,101359.53
2023-11-21T10:10:57.898Z,101364.63
2023-11-21T10:13:25.693Z,101363.47
2023-11-21T10:15:53.911Z,101359.84
2023-11-21T10:18:26.081Z,101370.59
2023-11-21T10:20:56.351Z,101376.88
2023-11-21T10:23:25.092Z,101378.13
2023-11-21T10:25:54.193Z,101389.31
2023-11-21T10:28:23.983Z,101384.81
2023-11-21T10:30:53.623Z,101374.59
2023-11-21T10:33:31.257Z,101384.88
2023-11-21T10:35:58.706Z,101388.31
2023-11-21T10:38:29.784Z,101393.88
2023-11-21T10:40:57.057Z,101380.09
2023-11-21T10:43:28.277Z,101385.66
2023-11-21T10:46:02.332Z,101385.31
2023-11-21T10:48:29.474Z,101387.91
2023-11-21T10:50:57.793Z,101388.31
2023-11-21T10:53:25.198Z,101380.31
2023-11-21T10:56:03.167Z,101375.88
2023-11-21T10:58:33.717Z,101386.22
2023-11-21T11:01:05.786Z,101392.97
2023-11-21T11:03:34.705Z,101400.84
2023-11-21T11:06:02.376Z,101403.72
2023-11-21T11:08:29.602Z,101406.28
2023-11-21T11:10:57.669Z,101404.91
2023-11-21T11:13:28.190Z,101398.91
2023-11-21T11:16:03.661Z,101397.97
2023-11-21T11:18:31.340Z,101397.16
2023-11-21T11:21:38.705Z,101400.78
2023-11-21T11:24:37.268Z,101389.66
2023-11-21T11:27:35.526Z,101407.38
2023-11-21T11:30:08.794Z,101417.34
2023-11-21T11:32:59.295Z,101419.13
2023-11-21T11:35:44.117Z,101426.38
2023-11-21T11:38:12.096Z,101428.72
2023-11-21T11:40:46.338Z,101437.16
2023-11-21T11:43:16.576Z,101436.44
2023-11-21T11:45:45.528Z,101434.91
2023-11-21T11:48:17.846Z,101434.56
2023-11-21T11:51:12.556Z,101435.06
2023-11-21T11:53:47.779Z,101436.06
2023-11-21T11:56:33.026Z,101448.69
2023-11-21T11:59:10.358Z,101455.69
2023-11-21T12:01:37.729Z,101451.69
2023-11-21T12:04:24.899Z,101456.16
2023-11-21T12:06:56.209Z,101463.53
2023-11-21T12:09:27.912Z,101462.84
2023-11-21T12:11:57.731Z,101453.03
2023-11-21T12:14:24.895Z,101466.34
2023-11-21T12:16:53.056Z,101462.94
2023-11-21T12:19:22.021Z,101468.00
2023-11-21T12:21:51.745Z,101475.28
2023-11-21T12:24:20.735Z,101483.00
2023-11-21T12:26:47.821Z,101470.69
2023-11-21T12:29:17.846Z,101483.44
2023-11-21T12:31:51.082Z,101483.56
2023-11-21T12:34:20.792Z,101481.66
2023-11-21T12:36:50.509Z,101489.69
2023-11-21T12:39:18.534Z,101492.78
2023-11-21T12:41:46.814Z,101494.31
2023-11-21T12:44:16.529Z,101497.56
2023-11-21T12:46:46.308Z,101506.00
2023-11-21T12:49:19.119Z,101506.28
2023-11-21T12:51:47.774Z,101508.31
2023-11-21T12:54:17.148Z,101510.91
2023-11-21T12:56:50.065Z,101512.09
2023-11-21T12:59:19.216Z,101508.31
2023-11-21T13:01:52.423Z,101513.28
2023-11-21T13:04:19.986Z,101524.44
2023-11-21T13:06:49.962Z,101527.13
2023-11-21T13:09:22.976Z,101535.47
2023-11-21T13:12:04.703Z,101537.16
2023-11-21T13:14:33.164Z,101556.25
2023-11-21T13:17:00.405Z,101555.00
2023-11-21T13:19:30.795Z,101556.84
2023-11-21T13:21:59.934Z,101559.97
2023-11-21T13:24:29.366Z,101559.69
2023-11-21T13:26:59.214Z,101562.28
2023-11-21T13:29:28.594Z,101565.56
2023-11-21T13:31:56.606Z,101566.56
2023-11-21T13:34:29.319Z,101571.13
2023-11-21T13:37:04.323Z,101568.84
2023-11-21T13:39:33.761Z,101573.97
2023-11-21T13:42:04.832Z,101573.38
2023-11-21T13:44:38.890Z,101574.09
2023-11-21T13:47:07.495Z,101575.78
2023-11-21T13:49:41.881Z,101586.91
2023-11-21T13:52:09.123Z,101587.63
2023-11-21T13:54:36.202Z,101593.91
2023-11-21T13:57:04.432Z,101596.34
2023-11-21T13:59:33.159Z,101594.75
2023-11-21T14:02:17.825Z,101594.91
2023-11-21T14:04:54.371Z,101596.47
2023-11-21T14:07:34.254Z,101593.63
2023-11-21T14:10:01.802Z,101596.91
2023-11-21T14:12:37.574Z,101608.19
2023-11-21T14:15:09.343Z,101619.00
2023-11-21T14:17:40.924Z,101618.16
2023-11-21T14:20:15.808Z,101617.44
2023-11-21T14:22:43.550Z,101626.13
2023-11-21T14:25:13.923Z,101625.41
2023-11-21T14:27:41.193Z,101627.84
2023-11-21T14:30:09.455Z,101629.69
2023-11-21T14:32:39.468Z,101631.53
2023-11-21T14:35:09.287Z,101639.53
2023-11-21T14:37:36.854Z,101634.97
2023-11-21T14:40:09.179Z,101638.69
2023-11-21T14:42:40.102Z,101651.50
2023-11-21T14:45:13.359Z,101649.94
2023-11-21T14:47:48.178Z,101651.94
2023-11-21T14:50:44.599Z,101658.63
2023-11-21T14:53:16.798Z,101649.53
2023-11-21T14:55:57.977Z,101647.22
2023-11-21T14:58:28.497Z,101656.91
2023-11-21T15:01:01.534Z,101665.19
2023-11-21T15:03:34.217Z,101663.19
2023-11-21T15:06:22.231Z,101666.19
2023-11-21T15:09:09.201Z,101670.06
2023-11-21T15:11:38.828Z,101666.75
2023-11-21T15:14:09.477Z,101679.69
2023-11-21T15:16:43.127Z,101682.66
2023-11-21T15:19:19.339Z,101682.41
2023-11-21T15:21:49.619Z,101691.91
2023-11-21T15:24:19.188Z,101693.88
2023-11-21T15:26:46.639Z,101694.44
2023-11-21T15:29:15.169Z,101704.59
2023-11-21T15:31:47.083Z,101713.84
2023-11-21T15:34:16.121Z,101716.97
2023-11-21T15:36:45.858Z,101716.28
2023-11-21T15:39:13.064Z,101716.09
2023-11-21T15:41:43.840Z,101720.38
2023-11-21T15:44:12.614Z,101723.22
2023-11-21T15:46:43.819Z,101732.56
2023-11-21T15:49:17.845Z,101732.56
2023-11-21T15:51:54.082Z,101738.13
2023-11-21T15:54:23.113Z,101740.69
2023-11-21T15:56:50.560Z,101747.78
2023-11-21T15:59:20.783Z,101755.47
2023-11-21T16:01:50.129Z,101752.66
2023-11-21T16:04:18.568Z,101766.13
2023-11-21T16:06:48.068Z,101766.31
2023-11-21T16:09:32.405Z,101776.69
2023-11-21T16:12:05.011Z,101781.69
2023-11-21T16:14:40.227Z,101789.06
2023-11-21T16:17:10.468Z,101789.13
2023-11-21T16:19:40.159Z,101798.69
2023-11-21T16:22:07.970Z,101801.28
2023-11-21T16:24:35.353Z,101799.69
2023-11-21T16:27:03.527Z,101801.00
2023-11-21T16:29:34.704Z,101803.56
2023-11-21T16:32:02.667Z,101812.88
2023-11-21T16:34:30.541Z,101816.41
2023-11-21T16:36:57.588Z,101827.88
2023-11-21T16:39:24.843Z,101830.88
2023-11-21T16:41:52.813Z,101844.97
2023-11-21T16:44:21.997Z,101840.28
2023-11-21T16:46:55.251Z,101848.31
2023-11-21T16:49:25.037Z,101849.75
2023-11-21T16:51:52.438Z,101858.38
2023-11-21T16:54:22.247Z,101863.34
2023-11-21T16:56:51.763Z,101864.63
2023-11-21T16:59:19.724Z,101874.22
2023-11-21T17:01:49.366Z,101877.69
2023-11-21T17:04:16.750Z,101877.22
2023-11-21T17:06:45.178Z,101878.47
2023-11-21T17:09:15.542Z,101888.25
2023-11-21T17:11:44.035Z,101883.66
2023-11-21T17:14:14.748Z,101895.38
2023-11-21T17:16:43.173Z,101902.56
2023-11-21T17:19:10.321Z,101906.41
2023-11-21T17:21:40.029Z,101911.66
2023-11-21T17:24:10.179Z,101916.66
2023-11-21T17:26:37.276Z,101921.97
2023-11-21T17:29:05.497Z,101919.75
2023-11-21T17:31:33.122Z,101930.44
2023-11-21T17:34:00.273Z,101926.31
2023-11-21T17:36:27.403Z,101935.06
2023-11-21T17:38:55.220Z,101946.84
2023-11-21T17:41:23.741Z,101952.34
2023-11-21T17:43:52.426Z,101949.78
2023-11-21T17:46:24.471Z,101955.44
2023-11-21T17:48:55.524Z,101961.56
2023-11-21T17:51:25.376Z,101960.47
2023-11-21T17:54:01.861Z,101968.44
2023-11-21T17:56:29.715Z,101975.56
2023-11-21T17:58:57.929Z,101979.72
2023-11-21T18:01:31.762Z,101980.72
2023-11-21T18:04:01.763Z,101984.78
2023-11-21T18:06:29.736Z,101986.75
2023-11-21T18:09:00.227Z,101997.28
2023-11-21T18:11:29.640Z,102001.78
2023-11-21T18:13:56.947Z,102006.56
2023-11-21T18:16:28.402Z,102004.75
2023-11-21T18:18:55.648Z,102011.38
2023-11-21T18:21:22.713Z,102011.41
2023-11-21T18:23:52.557Z,102008.59
2023-11-21T18:26:21.947Z,102015.69
2023-11-21T18:28:49.176Z,102013.38
2023-11-21T18:31:16.745Z,102021.63
2023-11-21T18:33:46.306Z,102027.63
2023-11-21T18:36:16.689Z,102037.69
2023-11-21T18:38:43.932Z,102041.75
2023-11-21T18:41:11.822Z,102043.06
2023-11-21T18:43:44.870Z,102038.66
2023-11-21T18:46:14.633Z,102041.72
2023-11-21T18:48:43.631Z,102041.84
2023-11-21T18:51:10.716Z,102053.38
2023-11-21T18:53:41.076Z,102059.91
2023-11-21T18:56:11.022Z,102056.75
2023-11-21T18:58:38.249Z,102050.28
2023-11-21T19:01:07.965Z,102069.94
2023-11-21T19:03:38.059Z,102062.22
2023-11-21T19:06:05.732Z,102074.03
2023-11-21T19:08:36.171Z,102077.94
2023-11-21T19:11:05.575Z,102083.50
2023-11-21T19:13:32.805Z,102083.63
2023-11-21T19:16:02.688Z,102076.03
2023-11-21T19:18:31.600Z,102074.56
2023-11-21T19:21:01.312Z,102083.13
2023-11-21T19:23:29.167Z,102085.94
2023-11-21T19:26:01.973Z,102089.19
2023-11-21T19:28:29.615Z,102090.16
2023-11-21T19:31:03.674Z,102103.06
2023-11-21T19:33:36.036Z,102114.91
2023-11-21T19:36:12.543Z,102109.81
2023-11-21T19:38:47.373Z,102110.84
2023-11-21T19:41:26.421Z,102116.69
2023-11-21T19:44:00.062Z,102127.19
2023-11-21T19:46:29.410Z,102129.22
2023-11-21T19:49:05.542Z,102128.84
2023-11-21T19:51:37.491Z,102138.28
2023-11-21T19:54:14.415Z,102133.72
2023-11-21T19:56:46.788Z,102154.34
2023-11-21T19:59:15.997Z,102158.38
2023-11-21T20:01:55.420Z,102151.88
2023-11-21T20:04:24.948Z,102149.69
2023-11-21T20:07:02.670Z,102151.47
2023-11-21T20:09:36.181Z,102156.41
2023-11-21T20:12:08.378Z,102165.44
2023-11-21T20:14:38.498Z,102158.09
2023-11-21T20:17:08.785Z,102167.56
2023-11-21T20:19:37.548Z,102167.13
2023-11-21T20:22:06.962Z,102167.84
2023-11-21T20:24:36.813Z,102177.75
2023-11-21T20:27:07.367Z,102175.28
2023-11-21T20:29:35.542Z,102176.13
2023-11-21T20:32:03.149Z,102180.97
2023-11-21T20:34:30.024Z,102186.97
2023-11-21T20:36:57.220Z,102176.41
2023-11-21T20:39:24.289Z,102185.47
2023-11-21T20:41:55.777Z,102186.44
2023-11-21T20:44:26.813Z,102196.78
2023-11-21T20:47:03.495Z,102199.78
2023-11-21T20:49:41.728Z,102201.78
2023-11-21T20:52:15.227Z,102202.53
2023-11-21T20:54:45.801Z,102210.34
2023-11-21T20:57:13.647Z,102210.34
2023-11-21T20:59:41.092Z,102215.97
2023-11-21T21:02:08.184Z,102211.09
2023-11-21T21:04:35.511Z,102216.19
2023-11-21T21:07:02.692Z,102225.50
2023-11-21T21:09:33.718Z,102231.00
2023-11-21T21:12:03.632Z,102229.13
2023-11-21T21:14:33.666Z,102227.09
2023-11-21T21:17:04.341Z,102223.53
2023-11-21T21:19:34.461Z,102226.69
2023-11-21T21:22:02.187Z,102230.84
2023-11-21T21:24:29.412Z,102236.28
2023-11-21T21:27:01.599Z,102245.81
2023-11-21T21:29:33.588Z,102253.91
2023-11-21T21:32:00.801Z,102253.91
2023-11-21T21:34:27.977Z,102255.72
2023-11-21T21:36:57.831Z,102264.59
2023-11-21T21:39:24.880Z,102272.91
2023-11-21T21:41:52.289Z,102274.22
2023-11-21T21:44:19.423Z,102281.63
2023-11-21T21:46:47.443Z,102291.69
2023-11-21T21:49:16.490Z,102292.22
2023-11-21T21:51:43.751Z,102289.19
2023-11-21T21:54:13.102Z,102291.38
2023-11-21T21:56:40.231Z,102298.03
2023-11-21T21:59:09.533Z,102296.31
2023-11-21T22:01:44.875Z,102305.09
2023-11-21T22:04:15.050Z,102303.69
2023-11-21T22:06:46.949Z,102305.59
2023-11-21T22:09:14.259Z,102296.94
2023-11-21T22:11:41.831Z,102306.22
2023-11-21T22:14:12.839Z,102306.06
2023-11-21T22:16:39.960Z,102309.00
2023-11-21T22:19:07.361Z,102301.34
2023-11-21T22:21:34.492Z,102302.75
2023-11-21T22:24:01.673Z,102302.38
2023-11-21T22:26:31.008Z,102309.88
2023-11-21T22:28:58.668Z,102311.84
2023-11-21T22:31:25.826Z,102307.84
2023-11-21T22:33:53.017Z,102319.91
2023-11-21T22:36:21.866Z,102315.25
2023-11-21T22:38:49.236Z,102310.72
2023-11-21T22:41:28.136Z,102315.19
2023-11-21T22:43:55.837Z,102316.81
2023-11-21T22:46:23.930Z,102319.13
2023-11-21T22:48:54.212Z,102325.81
2023-11-21T22:51:23.991Z,102320.69
2023-11-21T22:53:54.625Z,102325.50
2023-11-21T22:56:23.395Z,102315.28
2023-11-21T22:58:51.040Z,102315.91
2023-11-21T23:01:20.945Z,102303.72
2023-11-21T23:03:48.628Z,102296.84
2023-11-21T23:06:22.848Z,102311.75
2023-11-21T23:08:52.211Z,102319.88
2023-11-21T23:11:19.164Z,102328.63
2023-11-21T23:13:46.551Z,102329.69
2023-11-21T23:16:18.214Z,102340.56
2023-11-21T23:18:52.042Z,102347.16
2023-11-21T23:21:19.312Z,102362.56
2023-11-21T23:23:51.788Z,102356.84
2023-11-21T23:26:19.428Z,102358.72
2023-11-21T23:28:46.681Z,102363.34
2023-11-21T23:31:13.853Z,102362.00
2023-11-21T23:33:41.462Z,102352.78
2023-11-21T23:36:09.270Z,102350.16
2023-11-21T23:38:36.919Z,102353.22
2023-11-21T23:41:06.357Z,102356.22
2023-11-21T23:43:33.692Z,102354.78
2023-11-21T23:46:03.452Z,102359.31
2023-11-21T23:48:30.682Z,102357.38
2023-11-21T23:51:00.115Z,102358.56
2023-11-21T23:53:29.691Z,102367.19
2023-11-21T23:55:57.574Z,102370.94
2023-11-21T23:58:24.876Z,102377.09
